Time;durP1;ratioP1;P1;durP2;ratioP2;P2;SDS_P1;SDS_P2;PMS_P1;PMS_P2;Temp;Humidity;BMP_temperature;BMP_pressure;BME280_temperature;BME280_humidity;BME280_pressure;Samples;Min_cycle;Max_cycle;Signal;HPM_P1;HPM_P2
2020/12/28 00:02:17;;;;;;;13.48;9.45;;;3.10;99.90;;;;;;5053816;28;20366;-84
2020/12/28 00:04:43;;;;;;;10.90;7.95;;;3.10;99.90;;;;;;5053680;28;20068;-84
2020/12/28 00:07:09;;;;;;;11.55;9.07;;;3.10;99.90;;;;;;5059581;28;20024;-84
2020/12/28 00:09:34;;;;;;;10.43;7.82;;;3.10;99.90;;;;;;5072530;28;20020;-84
2020/12/28 00:12:00;;;;;;;13.00;9.30;;;3.10;99.90;;;;;;5072149;28;20024;-84
2020/12/28 00:14:26;;;;;;;10.55;8.27;;;3.10;99.90;;;;;;5073395;28;20054;-84
2020/12/28 00:16:53;;;;;;;11.20;7.90;;;3.10;99.90;;;;;;5072888;28;20032;-83
2020/12/28 00:19:19;;;;;;;12.50;8.43;;;3.10;99.90;;;;;;5072308;28;20032;-85
2020/12/28 00:21:44;;;;;;;15.90;8.10;;;3.10;99.90;;;;;;5073472;28;20024;-84
2020/12/28 00:24:11;;;;;;;13.10;10.38;;;3.10;99.90;;;;;;5073317;28;20035;-84
2020/12/28 00:26:38;;;;;;;11.80;9.23;;;3.10;99.90;;;;;;5068567;28;20025;-84
2020/12/28 00:29:05;;;;;;;13.80;10.32;;;3.10;99.90;;;;;;5053262;28;20495;-84
2020/12/28 00:31:32;;;;;;;12.93;8.98;;;3.10;99.90;;;;;;5053382;28;20021;-84
2020/12/28 00:33:58;;;;;;;13.63;9.55;;;3.20;99.90;;;;;;5053092;28;20024;-84
2020/12/28 00:36:23;;;;;;;12.98;10.00;;;3.10;99.90;;;;;;5053160;28;20071;-84
2020/12/28 00:38:49;;;;;;;14.48;10.23;;;3.10;99.90;;;;;;5071489;28;20048;-85
2020/12/28 00:41:14;;;;;;;11.57;9.38;;;3.10;99.90;;;;;;5071616;28;20047;-85
2020/12/28 00:43:41;;;;;;;12.18;9.95;;;3.10;99.90;;;;;;5072913;28;20040;-84
2020/12/28 00:46:07;;;;;;;12.95;9.73;;;3.10;99.90;;;;;;5072933;28;20370;-85
2020/12/28 00:48:33;;;;;;;12.80;9.43;;;3.10;99.90;;;;;;5057594;28;20047;-84
2020/12/28 00:50:59;;;;;;;14.45;10.02;;;3.10;99.90;;;;;;5051630;28;20072;-84
2020/12/28 00:53:25;;;;;;;14.95;9.60;;;3.10;99.90;;;;;;5052850;28;20497;-84
2020/12/28 00:55:51;;;;;;;14.93;10.63;;;3.10;99.90;;;;;;5051488;28;20029;-84
2020/12/28 00:58:16;;;;;;;17.20;9.95;;;3.10;99.90;;;;;;5069676;28;20105;-84
2020/12/28 01:00:42;;;;;;;12.35;9.43;;;3.10;99.90;;;;;;5072730;28;20025;-84
2020/12/28 01:03:08;;;;;;;14.25;10.00;;;3.10;99.90;;;;;;5071253;28;20448;-84
2020/12/28 01:05:33;;;;;;;13.70;10.43;;;3.10;99.90;;;;;;5072516;28;20024;-85
2020/12/28 01:07:59;;;;;;;14.50;10.60;;;3.10;99.90;;;;;;5057974;28;20539;-85
2020/12/28 01:10:25;;;;;;;14.05;9.05;;;3.10;99.90;;;;;;5051269;28;20116;-84
2020/12/28 01:12:51;;;;;;;11.02;8.68;;;3.20;99.90;;;;;;5051212;28;20029;-84
2020/12/28 01:15:16;;;;;;;13.73;9.88;;;3.20;99.90;;;;;;5052284;28;20091;-84
2020/12/28 01:17:42;;;;;;;11.85;9.13;;;3.20;99.90;;;;;;5059868;28;20039;-84
2020/12/28 01:20:07;;;;;;;11.98;9.45;;;3.10;99.90;;;;;;5072029;28;20031;-85
2020/12/28 01:22:33;;;;;;;16.20;8.98;;;3.20;99.90;;;;;;5071110;28;20533;-85
2020/12/28 01:24:58;;;;;;;11.73;8.95;;;3.10;99.90;;;;;;5072074;28;20127;-84
2020/12/28 01:27:24;;;;;;;10.65;8.48;;;3.10;99.90;;;;;;5060947;28;20068;-85
2020/12/28 01:29:49;;;;;;;14.05;9.32;;;3.20;99.90;;;;;;5052289;28;20052;-84
2020/12/28 01:32:15;;;;;;;13.15;9.45;;;3.20;99.90;;;;;;5051029;28;20496;-84
2020/12/28 01:34:41;;;;;;;13.30;9.80;;;3.20;99.90;;;;;;5050675;28;20083;-85
2020/12/28 01:37:06;;;;;;;11.30;8.85;;;3.20;99.90;;;;;;5056193;28;20111;-84
2020/12/28 01:39:32;;;;;;;13.73;9.57;;;3.20;99.90;;;;;;5072120;28;20021;-84
2020/12/28 01:41:57;;;;;;;11.23;8.65;;;3.20;99.90;;;;;;5070505;28;20031;-85
2020/12/28 01:44:23;;;;;;;10.80;8.43;;;3.20;99.90;;;;;;5071891;28;20150;-84
2020/12/28 01:46:48;;;;;;;19.20;8.23;;;3.20;99.90;;;;;;5071245;28;20365;-84
2020/12/28 01:49:14;;;;;;;13.27;9.68;;;3.20;99.90;;;;;;5050607;28;20029;-85
2020/12/28 01:51:43;;;;;;;17.48;9.10;;;3.20;99.90;;;;;;5051971;28;20028;-85
2020/12/28 01:54:10;;;;;;;13.77;9.40;;;3.20;99.90;;;;;;5050770;28;20028;-84
2020/12/28 01:56:38;;;;;;;11.57;8.82;;;3.20;99.90;;;;;;5054689;28;20028;-85
2020/12/28 01:59:04;;;;;;;11.85;8.48;;;3.20;99.90;;;;;;5070338;28;20024;-84
2020/12/28 02:01:38;;;;;;;15.95;8.77;;;3.20;99.90;;;;;;5071757;28;20024;-84
2020/12/28 02:04:04;;;;;;;12.02;9.23;;;3.20;99.90;;;;;;5070462;28;20020;-85
2020/12/28 02:06:30;;;;;;;13.60;10.32;;;3.20;99.90;;;;;;5070781;28;20033;-84
2020/12/28 02:08:55;;;;;;;13.40;10.40;;;3.20;99.90;;;;;;5051355;28;20100;-85
2020/12/28 02:11:21;;;;;;;12.65;9.93;;;3.20;99.90;;;;;;5051625;28;20111;-84
2020/12/28 02:13:47;;;;;;;13.15;9.93;;;3.20;99.90;;;;;;5050198;28;20029;-84
2020/12/28 02:16:12;;;;;;;15.80;11.20;;;3.20;99.90;;;;;;5050253;28;20091;-84
2020/12/28 02:18:38;;;;;;;15.77;11.40;;;3.20;99.90;;;;;;5066887;28;20035;-84
2020/12/28 02:21:03;;;;;;;14.02;10.85;;;3.20;99.90;;;;;;5071307;28;20078;-83
2020/12/28 02:23:29;;;;;;;15.77;11.50;;;3.20;99.90;;;;;;5071578;28;20029;-84
2020/12/28 02:25:55;;;;;;;16.60;12.15;;;3.20;99.90;;;;;;5071396;28;20078;-84
2020/12/28 02:28:20;;;;;;;14.98;12.15;;;3.20;99.90;;;;;;5052543;28;20040;-83
2020/12/28 02:30:46;;;;;;;18.80;13.05;;;3.10;99.90;;;;;;5050188;28;20021;-83
2020/12/28 02:33:11;;;;;;;17.05;13.80;;;3.20;99.90;;;;;;5052760;28;20554;-84
2020/12/28 02:35:37;;;;;;;22.70;13.30;;;3.20;99.90;;;;;;5051288;28;20397;-84
2020/12/28 02:38:02;;;;;;;17.35;13.15;;;3.20;99.90;;;;;;5064430;28;20036;-84
2020/12/28 02:40:28;;;;;;;17.70;13.65;;;3.20;99.90;;;;;;5071441;28;20046;-84
2020/12/28 02:42:54;;;;;;;20.50;15.07;;;3.20;99.90;;;;;;5071138;28;20481;-85
2020/12/28 02:45:19;;;;;;;21.05;14.07;;;3.20;99.90;;;;;;5069828;28;20028;-84
2020/12/28 02:47:45;;;;;;;19.35;14.13;;;3.20;99.90;;;;;;5062877;28;20555;-84
2020/12/28 02:50:10;;;;;;;19.88;14.43;;;3.20;99.90;;;;;;5051348;28;20031;-84
2020/12/28 02:52:36;;;;;;;20.00;14.02;;;3.20;99.90;;;;;;5052325;28;20040;-83
2020/12/28 02:55:02;;;;;;;20.73;13.98;;;3.20;99.90;;;;;;5051048;28;20036;-84
2020/12/28 02:57:27;;;;;;;21.38;14.55;;;3.20;99.90;;;;;;5049766;28;20116;-84
2020/12/28 02:59:53;;;;;;;18.98;14.38;;;3.20;99.90;;;;;;5051071;28;20021;-83
2020/12/28 03:02:18;;;;;;;24.55;15.45;;;3.20;99.90;;;;;;5051219;28;20022;-84
2020/12/28 03:04:44;;;;;;;23.77;15.10;;;3.20;99.90;;;;;;5068882;28;20453;-85
2020/12/28 03:07:09;;;;;;;25.50;14.45;;;3.20;99.90;;;;;;5069846;28;20024;-84
2020/12/28 03:09:35;;;;;;;36.17;15.27;;;3.10;99.90;;;;;;5071169;28;20415;-83
2020/12/28 03:12:00;;;;;;;22.17;15.65;;;3.20;99.90;;;;;;5063205;28;20108;-84
2020/12/28 03:14:26;;;;;;;24.55;16.80;;;3.20;99.90;;;;;;5050789;28;20029;-84
2020/12/28 03:16:51;;;;;;;20.65;15.55;;;3.20;99.90;;;;;;5049726;28;20036;-83
2020/12/28 03:19:17;;;;;;;21.50;16.23;;;3.20;99.90;;;;;;5049907;28;20467;-85
2020/12/28 03:21:43;;;;;;;22.95;15.90;;;3.20;99.90;;;;;;5052678;28;20032;-84
2020/12/28 03:24:08;;;;;;;25.27;16.75;;;3.20;99.90;;;;;;5054364;28;20481;-83
2020/12/28 03:26:34;;;;;;;23.25;16.55;;;3.20;99.90;;;;;;5057207;28;20476;-85
2020/12/28 03:28:59;;;;;;;26.85;17.40;;;3.20;99.90;;;;;;5073104;28;20024;-83
2020/12/28 03:31:28;;;;;;;22.25;16.67;;;3.20;99.90;;;;;;5074471;28;20020;-84
2020/12/28 03:33:54;;;;;;;24.73;16.50;;;3.20;99.90;;;;;;5072183;28;20055;-84
2020/12/28 03:36:20;;;;;;;25.77;17.95;;;3.20;99.90;;;;;;5073159;28;20020;-84
2020/12/28 03:38:45;;;;;;;26.48;16.83;;;3.20;99.90;;;;;;5072879;28;20436;-84
2020/12/28 03:41:13;;;;;;;25.38;16.27;;;3.20;99.90;;;;;;5073328;28;20025;-85
2020/12/28 03:43:38;;;;;;;22.30;16.90;;;3.20;99.90;;;;;;5073691;28;20021;-84
2020/12/28 03:46:04;;;;;;;28.33;18.05;;;3.20;99.90;;;;;;5072815;28;20112;-84
2020/12/28 03:48:30;;;;;;;23.58;15.77;;;3.20;99.90;;;;;;5074131;28;20028;-85
2020/12/28 03:50:55;;;;;;;26.00;17.10;;;3.20;99.90;;;;;;5074152;28;20186;-84
2020/12/28 03:53:21;;;;;;;26.67;16.63;;;3.20;99.90;;;;;;5056668;28;20051;-84
2020/12/28 03:55:46;;;;;;;29.27;17.92;;;3.30;99.90;;;;;;5052580;28;20120;-84
2020/12/28 03:58:12;;;;;;;25.48;16.92;;;3.20;99.90;;;;;;5052397;28;20504;-84
2020/12/28 04:00:38;;;;;;;25.27;17.67;;;3.20;99.90;;;;;;5052712;28;20025;-84
2020/12/28 04:03:03;;;;;;;25.40;18.20;;;3.20;99.90;;;;;;5063024;28;20016;-85
2020/12/28 04:05:29;;;;;;;26.20;17.20;;;3.20;99.90;;;;;;5073683;28;20389;-85
2020/12/28 04:07:54;;;;;;;23.92;16.90;;;3.20;99.90;;;;;;5072460;28;20120;-84
2020/12/28 04:10:20;;;;;;;30.70;16.45;;;3.20;99.90;;;;;;5073777;28;20546;-85
2020/12/28 04:12:45;;;;;;;26.25;19.00;;;3.30;99.90;;;;;;5058569;28;20663;-85
2020/12/28 04:15:11;;;;;;;24.48;17.60;;;3.30;99.90;;;;;;5052261;28;20063;-84
2020/12/28 04:17:36;;;;;;;24.63;17.98;;;3.20;99.90;;;;;;5052261;28;20021;-85
2020/12/28 04:20:03;;;;;;;24.05;17.00;;;3.20;99.90;;;;;;5053945;28;20037;-85
2020/12/28 04:22:29;;;;;;;25.45;17.60;;;3.20;99.90;;;;;;5061911;28;20090;-85
2020/12/28 04:24:54;;;;;;;24.10;16.33;;;3.20;99.90;;;;;;5073348;28;20473;-85
2020/12/28 04:27:20;;;;;;;27.63;16.70;;;3.20;99.90;;;;;;5071649;28;20021;-84
2020/12/28 04:29:48;;;;;;;22.13;15.38;;;3.20;99.90;;;;;;5072163;28;20028;-84
2020/12/28 04:32:14;;;;;;;30.27;15.85;;;3.20;99.90;;;;;;5068044;28;20025;-84
2020/12/28 04:34:39;;;;;;;25.67;14.85;;;3.30;99.90;;;;;;5051835;28;20026;-85
2020/12/28 04:37:05;;;;;;;23.80;15.88;;;3.20;99.90;;;;;;5051830;28;20120;-85
2020/12/28 04:39:30;;;;;;;22.42;16.00;;;3.30;99.90;;;;;;5057987;28;20024;-84
2020/12/28 04:41:56;;;;;;;29.15;15.90;;;3.30;99.90;;;;;;5071438;28;20029;-85
2020/12/28 04:44:21;;;;;;;22.90;15.10;;;3.30;99.90;;;;;;5071607;28;20032;-85
2020/12/28 04:46:47;;;;;;;23.60;15.68;;;3.20;99.90;;;;;;5072997;28;20533;-85
2020/12/28 04:49:13;;;;;;;22.23;15.68;;;3.30;99.90;;;;;;5070012;28;20135;-85
2020/12/28 04:51:39;;;;;;;19.20;14.82;;;3.30;99.90;;;;;;5052987;28;20025;-85
2020/12/28 04:54:05;;;;;;;23.38;14.88;;;3.30;99.90;;;;;;5052695;28;20396;-85
2020/12/28 04:56:34;;;;;;;27.08;14.50;;;3.20;99.90;;;;;;5055782;28;20025;-84
2020/12/28 04:59:00;;;;;;;19.75;14.38;;;3.30;99.90;;;;;;5072560;28;20031;-85
2020/12/28 05:01:26;;;;;;;18.98;13.73;;;3.30;99.90;;;;;;5072803;28;20029;-84
2020/12/28 05:03:52;;;;;;;19.75;14.07;;;3.30;99.90;;;;;;5072508;28;20017;-84
2020/12/28 05:06:18;;;;;;;25.08;15.70;;;3.30;99.90;;;;;;5071397;28;20024;-84
2020/12/28 05:08:44;;;;;;;21.20;15.40;;;3.30;99.90;;;;;;5053382;28;20523;-84
2020/12/28 05:11:13;;;;;;;24.60;15.00;;;3.30;99.90;;;;;;5052450;28;20040;-85
2020/12/28 05:13:38;;;;;;;25.33;15.65;;;3.30;99.90;;;;;;5051289;28;20086;-83
2020/12/28 05:16:04;;;;;;;24.52;15.77;;;3.30;99.90;;;;;;5052306;28;20028;-84
2020/12/28 05:18:33;;;;;;;24.90;16.75;;;3.30;99.90;;;;;;5066357;28;20535;-84
2020/12/28 05:20:59;;;;;;;21.33;14.75;;;3.30;99.90;;;;;;5071157;28;20024;-85
2020/12/28 05:23:25;;;;;;;20.77;14.40;;;3.30;99.90;;;;;;5072320;28;20381;-84
2020/12/28 05:25:51;;;;;;;23.90;15.57;;;3.20;99.90;;;;;;5070771;28;20105;-85
2020/12/28 05:28:21;;;;;;;21.58;15.65;;;3.30;99.90;;;;;;5052759;28;20095;-84
2020/12/28 05:30:48;;;;;;;21.30;15.38;;;3.30;99.90;;;;;;5050994;28;20033;-85
2020/12/28 05:33:13;;;;;;;23.52;17.13;;;3.30;99.90;;;;;;5052213;28;20028;-84
2020/12/28 05:35:40;;;;;;;19.67;14.55;;;3.30;99.90;;;;;;5051997;28;20040;-84
2020/12/28 05:38:07;;;;;;;24.33;15.05;;;3.30;99.90;;;;;;5063874;28;20436;-85
2020/12/28 05:40:34;;;;;;;21.42;15.05;;;3.30;99.90;;;;;;5070853;28;20025;-85
2020/12/28 05:43:00;;;;;;;22.55;15.82;;;3.30;99.90;;;;;;5070064;28;20020;-85
2020/12/28 05:45:26;;;;;;;22.65;16.60;;;3.30;99.90;;;;;;5071887;28;20030;-84
2020/12/28 05:47:57;;;;;;;23.52;15.23;;;3.40;99.90;;;;;;5061566;28;20021;-85
2020/12/28 05:50:25;;;;;;;23.63;15.93;;;3.30;99.90;;;;;;5050706;28;20397;-85
2020/12/28 05:53:02;;;;;;;20.73;14.57;;;3.30;99.90;;;;;;5050594;28;20526;-85
2020/12/28 05:55:29;;;;;;;20.42;13.82;;;3.30;99.90;;;;;;5050506;28;20031;-86
2020/12/28 05:57:56;;;;;;;19.85;14.80;;;3.30;99.90;;;;;;5066315;28;20031;-85
2020/12/28 06:00:23;;;;;;;21.15;14.75;;;3.30;99.90;;;;;;5070497;28;20025;-85
2020/12/28 06:02:49;;;;;;;20.15;14.30;;;3.30;99.90;;;;;;5070652;28;20021;-85
2020/12/28 06:05:19;;;;;;;20.88;13.65;;;3.30;99.90;;;;;;5070325;28;20439;-84
2020/12/28 06:07:45;;;;;;;19.95;13.68;;;3.30;99.90;;;;;;5059909;28;20025;-84
2020/12/28 06:10:12;;;;;;;18.30;13.57;;;3.30;99.90;;;;;;5051715;28;20056;-83
2020/12/28 06:12:39;;;;;;;17.38;12.68;;;3.30;99.90;;;;;;5051645;28;20029;-84
2020/12/28 06:15:19;;;;;;;22.00;14.05;;;3.30;99.90;;;;;;5050252;28;20512;-85
2020/12/28 06:17:45;;;;;;;18.40;12.73;;;3.30;99.90;;;;;;5057684;28;20071;-84
2020/12/28 06:20:11;;;;;;;19.77;12.90;;;3.30;99.90;;;;;;5070365;28;20048;-85
2020/12/28 06:22:37;;;;;;;18.00;13.63;;;3.30;99.90;;;;;;5071715;28;20480;-85
2020/12/28 06:25:07;;;;;;;20.17;13.85;;;3.40;99.90;;;;;;5071492;28;20396;-85
2020/12/28 06:27:34;;;;;;;21.10;13.07;;;3.30;99.90;;;;;;5069464;28;20399;-84
2020/12/28 06:30:26;;;;;;;18.08;13.13;;;3.30;99.90;;;;;;5070371;28;20119;-84
2020/12/28 06:33:03;;;;;;;22.67;12.65;;;3.30;99.90;;;;;;5070439;28;20036;-84
2020/12/28 06:35:30;;;;;;;15.98;11.90;;;3.30;99.90;;;;;;5070044;28;20078;-85
2020/12/28 06:38:00;;;;;;;17.25;11.50;;;3.30;99.90;;;;;;5058998;28;20029;-85
2020/12/28 06:40:36;;;;;;;19.25;11.63;;;3.30;99.90;;;;;;5050301;28;20032;-86
2020/12/28 06:43:05;;;;;;;16.63;11.45;;;3.30;99.90;;;;;;5051312;28;20516;-85
2020/12/28 06:45:31;;;;;;;17.58;11.48;;;3.30;99.90;;;;;;5051619;28;20374;-84
2020/12/28 06:47:57;;;;;;;16.98;11.18;;;3.40;99.90;;;;;;5059187;28;20040;-85
2020/12/28 06:50:22;;;;;;;16.73;11.57;;;3.40;99.90;;;;;;5070115;28;20028;-85
2020/12/28 06:52:52;;;;;;;17.98;11.35;;;3.30;99.90;;;;;;5070166;28;20680;-85
2020/12/28 06:55:18;;;;;;;18.33;12.35;;;3.30;99.90;;;;;;5071555;28;20111;-85
2020/12/28 06:57:44;;;;;;;15.93;10.43;;;3.30;99.90;;;;;;5060339;28;20174;-85
2020/12/28 07:00:19;;;;;;;13.75;10.55;;;3.30;99.90;;;;;;5055102;28;20388;-85
2020/12/28 07:02:52;;;;;;;15.75;10.23;;;3.40;99.90;;;;;;5053975;28;20048;-85
2020/12/28 07:05:26;;;;;;;17.20;11.13;;;3.40;99.90;;;;;;5054837;28;20021;-85
2020/12/28 07:07:52;;;;;;;17.20;11.82;;;3.40;99.90;;;;;;5065906;28;20036;-84
2020/12/28 07:10:20;;;;;;;17.48;11.35;;;3.40;99.90;;;;;;5073640;28;20071;-85
2020/12/28 07:12:47;;;;;;;17.55;10.98;;;3.40;99.90;;;;;;5073228;28;20035;-85
2020/12/28 07:15:13;;;;;;;15.02;11.02;;;3.40;99.90;;;;;;5074682;28;20075;-85
2020/12/28 07:17:39;;;;;;;15.50;11.13;;;3.40;99.90;;;;;;5067105;28;20033;-85
2020/12/28 07:20:07;;;;;;;17.13;11.80;;;3.40;99.90;;;;;;5053476;28;20473;-85
2020/12/28 07:22:36;;;;;;;13.50;10.63;;;3.40;99.90;;;;;;5053358;28;20021;-84
2020/12/28 07:25:03;;;;;;;14.43;10.77;;;3.40;99.90;;;;;;5053256;28;20507;-85
2020/12/28 07:27:28;;;;;;;20.90;12.65;;;3.40;99.90;;;;;;5063953;28;20036;-85
2020/12/28 07:29:54;;;;;;;18.55;12.35;;;3.40;99.90;;;;;;5056934;28;20021;-84
2020/12/28 07:32:20;;;;;;;16.63;13.02;;;3.40;99.90;;;;;;5052134;28;20025;-84
2020/12/28 07:34:53;;;;;;;17.60;12.95;;;3.40;99.90;;;;;;5053960;28;20028;-85
2020/12/28 07:37:19;;;;;;;17.33;12.77;;;3.40;99.90;;;;;;5061776;28;20588;-84
2020/12/28 07:39:49;;;;;;;16.60;13.18;;;3.50;99.90;;;;;;5076100;28;20056;-85
2020/12/28 07:42:22;;;;;;;16.15;12.18;;;3.40;99.90;;;;;;5074043;28;20423;-85
2020/12/28 07:45:00;;;;;;;18.15;13.25;;;3.40;99.90;;;;;;5074175;28;20021;-84
2020/12/28 07:47:40;;;;;;;16.25;12.75;;;3.50;99.90;;;;;;5068987;28;20029;-84
2020/12/28 07:50:08;;;;;;;22.65;13.68;;;3.50;99.90;;;;;;5052989;28;20025;-84
2020/12/28 07:52:43;;;;;;;15.77;13.00;;;3.50;99.90;;;;;;5054152;28;20469;-84
2020/12/28 07:55:17;;;;;;;17.35;13.38;;;3.50;99.90;;;;;;5050349;28;20025;-84
2020/12/28 07:58:07;;;;;;;18.50;13.15;;;3.50;99.90;;;;;;5056069;28;20493;-84
2020/12/28 08:00:38;;;;;;;26.48;13.77;;;3.50;99.90;;;;;;5053655;28;20036;-85
2020/12/28 08:03:16;;;;;;;18.83;13.98;;;3.50;99.90;;;;;;5070684;28;20396;-84
2020/12/28 08:05:43;;;;;;;19.42;14.05;;;3.50;99.90;;;;;;5073096;28;20013;-85
2020/12/28 08:08:19;;;;;;;19.70;14.68;;;3.50;99.90;;;;;;5057639;28;20113;-85
2020/12/28 08:10:53;;;;;;;21.25;14.02;;;3.50;99.90;;;;;;5054606;28;20036;-85
2020/12/28 08:13:27;;;;;;;26.75;13.57;;;3.50;99.90;;;;;;5052531;28;20442;-84
2020/12/28 08:15:53;;;;;;;19.58;14.20;;;3.50;99.90;;;;;;5053084;28;20021;-84
2020/12/28 08:18:18;;;;;;;20.83;13.60;;;3.50;99.90;;;;;;5065255;28;20033;-84
2020/12/28 08:20:55;;;;;;;18.98;14.00;;;3.50;99.90;;;;;;5073194;28;20021;-84
2020/12/28 08:23:27;;;;;;;21.67;15.27;;;3.50;99.90;;;;;;5072161;28;20028;-84
2020/12/28 08:25:53;;;;;;;21.90;15.95;;;3.50;99.90;;;;;;5071915;28;20059;-84
2020/12/28 08:28:20;;;;;;;20.80;15.63;;;3.50;99.90;;;;;;5055159;28;20029;-84
2020/12/28 08:30:46;;;;;;;19.88;14.93;;;3.50;99.90;;;;;;5053306;28;20393;-84
2020/12/28 08:33:11;;;;;;;19.90;14.70;;;3.50;99.90;;;;;;5051852;28;20025;-84
2020/12/28 08:35:51;;;;;;;22.52;14.35;;;3.50;99.90;;;;;;5051801;28;20562;-84
2020/12/28 08:38:18;;;;;;;22.83;15.40;;;3.70;99.90;;;;;;5067511;28;20078;-84
2020/12/28 08:40:53;;;;;;;21.48;16.15;;;3.50;99.90;;;;;;5072997;28;20021;-84
2020/12/28 08:43:19;;;;;;;20.77;15.38;;;3.50;99.90;;;;;;5072772;28;20031;-84
2020/12/28 08:45:44;;;;;;;21.33;14.52;;;3.50;99.90;;;;;;5072641;28;20389;-84
2020/12/28 08:48:10;;;;;;;21.70;15.32;;;3.60;99.90;;;;;;5062289;28;20040;-84
2020/12/28 08:50:37;;;;;;;23.00;14.98;;;3.60;99.90;;;;;;5052988;28;20025;-84
2020/12/28 08:53:03;;;;;;;21.05;14.90;;;3.60;99.90;;;;;;5051548;28;20052;-84
2020/12/28 08:55:28;;;;;;;22.65;16.00;;;3.60;99.90;;;;;;5051297;28;20029;-84
2020/12/28 08:57:56;;;;;;;20.45;15.68;;;3.60;99.90;;;;;;5066823;28;20507;-84
2020/12/28 09:00:26;;;;;;;20.15;15.18;;;3.60;99.90;;;;;;5071249;28;20469;-84
2020/12/28 09:02:59;;;;;;;19.80;14.82;;;3.60;99.90;;;;;;5071344;28;20032;-85
2020/12/28 09:05:29;;;;;;;24.73;15.48;;;3.60;99.90;;;;;;5072453;28;20024;-85
2020/12/28 09:07:55;;;;;;;19.92;14.85;;;3.70;99.90;;;;;;5059693;28;20112;-83
2020/12/28 09:10:20;;;;;;;19.55;14.63;;;3.60;99.90;;;;;;5051293;28;20124;-85
2020/12/28 09:12:46;;;;;;;24.27;14.35;;;3.70;99.90;;;;;;5052558;28;20104;-84
2020/12/28 09:15:12;;;;;;;19.58;13.85;;;3.70;99.90;;;;;;5052212;28;20104;-85
2020/12/28 09:17:38;;;;;;;19.60;14.80;;;3.70;99.90;;;;;;5058081;28;20036;-85
2020/12/28 09:20:05;;;;;;;23.65;14.48;;;3.70;99.90;;;;;;5071658;28;20024;-82
2020/12/28 09:22:31;;;;;;;19.80;13.95;;;3.70;99.90;;;;;;5072413;28;20017;-81
2020/12/28 09:24:57;;;;;;;21.83;15.15;;;3.70;99.90;;;;;;5072044;28;20035;-80
2020/12/28 09:27:22;;;;;;;21.58;13.90;;;3.70;99.90;;;;;;5060598;28;20021;-82
2020/12/28 09:29:48;;;;;;;23.23;15.15;;;3.70;99.90;;;;;;5053241;28;20458;-81
2020/12/28 09:32:13;;;;;;;21.45;14.13;;;3.70;99.90;;;;;;5052173;28;20032;-82
2020/12/28 09:34:39;;;;;;;21.65;15.57;;;3.80;99.90;;;;;;5050829;28;20044;-82
2020/12/28 09:37:07;;;;;;;18.13;14.27;;;3.80;99.90;;;;;;5052001;28;20020;-83
2020/12/28 09:39:34;;;;;;;19.92;13.48;;;3.80;99.90;;;;;;5051966;28;20036;-85
2020/12/28 09:42:00;;;;;;;22.88;13.43;;;3.90;99.90;;;;;;5067912;28;20025;-84
2020/12/28 09:44:26;;;;;;;18.23;13.13;;;3.80;99.90;;;;;;5070604;28;20020;-84
2020/12/28 09:46:53;;;;;;;18.30;13.63;;;3.80;99.90;;;;;;5071864;28;20017;-85
2020/12/28 09:49:21;;;;;;;17.88;14.05;;;3.80;99.90;;;;;;5072101;28;20438;-84
2020/12/28 09:51:53;;;;;;;19.55;13.05;;;3.80;99.90;;;;;;5058309;28;20382;-84
2020/12/28 09:54:20;;;;;;;19.38;12.63;;;3.90;99.90;;;;;;5051656;28;20028;-83
2020/12/28 09:56:45;;;;;;;16.42;12.95;;;3.90;99.90;;;;;;5050672;28;20079;-84
2020/12/28 09:59:11;;;;;;;18.02;12.52;;;3.90;99.90;;;;;;5051541;28;20477;-83
2020/12/28 10:01:37;;;;;;;23.05;11.55;;;3.90;99.90;;;;;;5059554;28;20142;-83
2020/12/28 10:04:03;;;;;;;14.00;10.75;;;3.80;99.90;;;;;;5070510;28;20020;-85
2020/12/28 10:06:32;;;;;;;12.55;9.90;;;3.80;99.90;;;;;;5071870;28;20025;-85
2020/12/28 10:09:02;;;;;;;13.77;9.70;;;3.70;99.90;;;;;;5071741;28;20033;-86
2020/12/28 10:11:27;;;;;;;12.73;10.30;;;3.70;99.90;;;;;;5051422;28;20120;-84
2020/12/28 10:13:53;;;;;;;13.50;9.00;;;3.70;99.90;;;;;;5050145;28;20120;-85
2020/12/28 10:16:27;;;;;;;10.63;8.27;;;3.60;99.90;;;;;;5051527;28;20123;-84
2020/12/28 10:18:53;;;;;;;8.60;6.60;;;3.60;99.90;;;;;;5051342;28;20029;-85
2020/12/28 10:21:19;;;;;;;14.68;6.15;;;3.50;99.90;;;;;;5066226;28;20063;-86
2020/12/28 10:23:45;;;;;;;11.45;6.55;;;3.60;99.90;;;;;;5071257;28;20536;-84
2020/12/28 10:26:19;;;;;;;7.65;5.70;;;3.70;99.90;;;;;;5069892;28;20115;-85
2020/12/28 10:28:45;;;;;;;8.13;5.60;;;3.70;99.90;;;;;;5049841;28;20099;-85
2020/12/28 10:31:12;;;;;;;8.38;5.32;;;3.80;99.90;;;;;;5052598;28;20393;-84
2020/12/28 10:33:39;;;;;;;9.02;5.80;;;3.70;99.90;;;;;;5054790;28;20024;-85
2020/12/28 10:36:06;;;;;;;9.00;4.68;;;3.70;99.90;;;;;;5055248;28;20021;-83
2020/12/28 10:38:32;;;;;;;6.60;4.40;;;3.70;99.90;;;;;;5065142;28;20028;-83
2020/12/28 10:40:57;;;;;;;8.30;4.22;;;3.60;99.90;;;;;;5073609;28;20028;-84
2020/12/28 10:43:23;;;;;;;8.20;4.18;;;3.50;99.90;;;;;;5055144;28;20028;-85
2020/12/28 10:45:48;;;;;;;8.13;4.90;;;3.50;99.90;;;;;;5051853;28;20548;-83
2020/12/28 10:48:14;;;;;;;8.68;4.63;;;3.50;99.90;;;;;;5052108;28;20416;-85
2020/12/28 10:50:40;;;;;;;6.63;4.18;;;3.50;99.90;;;;;;5052831;28;20029;-83
2020/12/28 10:53:05;;;;;;;9.20;4.25;;;3.60;99.90;;;;;;5065701;28;20698;-85
2020/12/28 10:55:31;;;;;;;6.40;4.10;;;3.50;99.90;;;;;;5071034;28;20078;-84
2020/12/28 10:57:56;;;;;;;8.57;4.20;;;3.60;99.90;;;;;;5072840;28;20468;-84
2020/12/28 11:00:22;;;;;;;8.00;4.50;;;3.50;99.90;;;;;;5073486;28;20025;-85
2020/12/28 11:02:49;;;;;;;6.40;4.43;;;3.60;99.90;;;;;;5066053;28;20021;-85
2020/12/28 11:05:14;;;;;;;5.18;3.95;;;3.50;99.90;;;;;;5092650;28;20107;-85
2020/12/28 11:07:40;;;;;;;6.05;3.78;;;3.50;99.90;;;;;;5092290;28;20871;-85
2020/12/28 11:10:06;;;;;;;5.78;4.18;;;3.40;99.90;;;;;;5093386;28;20034;-85
2020/12/28 11:12:31;;;;;;;8.13;4.95;;;3.40;99.90;;;;;;5081273;28;20518;-84
2020/12/28 11:14:57;;;;;;;10.80;4.43;;;3.40;99.90;;;;;;5057409;28;20024;-84
2020/12/28 11:17:22;;;;;;;7.85;4.85;;;3.30;99.90;;;;;;5052551;28;20488;-83
2020/12/28 11:19:48;;;;;;;11.23;4.70;;;3.40;99.90;;;;;;5053657;28;20025;-84
2020/12/28 11:22:13;;;;;;;7.55;4.65;;;3.30;99.90;;;;;;5057317;28;20029;-84
2020/12/28 11:24:39;;;;;;;13.07;5.25;;;3.30;99.90;;;;;;5073829;28;20016;-83
2020/12/28 11:27:05;;;;;;;8.07;5.32;;;3.40;99.90;;;;;;5073498;28;20091;-82
2020/12/28 11:29:30;;;;;;;6.20;4.25;;;3.40;99.90;;;;;;5073955;28;20059;-82
2020/12/28 11:31:56;;;;;;;7.78;4.78;;;3.50;99.90;;;;;;5072963;28;20381;-84
2020/12/28 11:34:21;;;;;;;9.10;5.13;;;3.50;99.90;;;;;;5053869;28;20029;-81
2020/12/28 11:36:47;;;;;;;7.80;4.57;;;3.40;99.90;;;;;;5053224;28;20051;-80
2020/12/28 11:39:14;;;;;;;9.10;4.75;;;3.40;99.90;;;;;;5053870;28;20025;-82
2020/12/28 11:41:40;;;;;;;7.90;4.80;;;3.40;99.90;;;;;;5052983;28;20138;-82
2020/12/28 11:44:09;;;;;;;8.73;4.43;;;3.40;99.90;;;;;;5053723;28;20485;-83
2020/12/28 11:46:35;;;;;;;9.60;5.05;;;3.40;99.90;;;;;;5053794;28;20543;-83
2020/12/28 11:49:01;;;;;;;9.00;5.60;;;3.30;99.90;;;;;;5053798;28;20037;-82
2020/12/28 11:51:26;;;;;;;10.98;5.30;;;3.40;99.90;;;;;;5051958;28;20065;-81
2020/12/28 11:53:52;;;;;;;11.77;4.50;;;3.30;99.90;;;;;;5071630;28;20032;-81
2020/12/28 11:56:19;;;;;;;6.75;4.60;;;3.30;99.90;;;;;;5073238;28;20389;-81
2020/12/28 11:58:45;;;;;;;8.80;4.90;;;3.40;99.90;;;;;;5073370;28;20154;-80
2020/12/28 12:01:16;;;;;;;9.10;5.50;;;3.40;99.90;;;;;;5073980;28;20095;-81
2020/12/28 12:03:47;;;;;;;12.55;5.47;;;3.40;99.90;;;;;;5071521;28;20025;-81
2020/12/28 12:06:21;;;;;;;10.75;5.40;;;3.50;99.90;;;;;;5073866;28;20052;-80
2020/12/28 12:11:33;;;;;;;11.18;5.85;;;3.50;99.90;;;;;;5073375;28;20086;-80
2020/12/28 12:13:59;;;;;;;9.43;5.85;;;3.60;99.90;;;;;;5074601;28;20025;-79
2020/12/28 12:16:26;;;;;;;12.40;6.07;;;3.50;99.90;;;;;;5073560;28;20037;-80
2020/12/28 12:18:52;;;;;;;9.90;5.93;;;3.60;99.90;;;;;;5074120;28;20017;-79
2020/12/28 12:21:18;;;;;;;7.95;5.05;;;3.60;99.90;;;;;;5075057;28;20024;-80
2020/12/28 12:23:44;;;;;;;16.40;6.90;;;3.60;99.90;;;;;;5054904;28;20025;-81
2020/12/28 12:26:10;;;;;;;9.75;5.68;;;3.60;99.90;;;;;;5053343;28;20052;-81
2020/12/28 12:28:35;;;;;;;9.13;6.28;;;3.50;99.90;;;;;;5053115;28;20044;-80
2020/12/28 12:31:02;;;;;;;8.27;6.18;;;3.60;99.90;;;;;;5068035;28;20032;-81
2020/12/28 12:33:28;;;;;;;9.88;6.78;;;3.60;99.90;;;;;;5073354;28;20052;-80
2020/12/28 12:35:53;;;;;;;13.48;6.85;;;3.50;99.90;;;;;;5072855;28;20063;-80
2020/12/28 12:38:19;;;;;;;11.05;7.10;;;3.50;99.90;;;;;;5071673;28;20541;-81
2020/12/28 12:40:45;;;;;;;11.98;7.25;;;3.50;99.90;;;;;;5074829;28;20130;-81
2020/12/28 12:43:11;;;;;;;20.60;8.23;;;3.50;99.90;;;;;;5072672;28;20024;-80